createdAt,value
2022-10-05T00:00:45.083Z,5.88
2022-10-05T00:03:13.081Z,5.50
2022-10-05T00:05:41.200Z,4.80
2022-10-05T00:08:15.735Z,5.40
2022-10-05T00:10:45.489Z,3.83
2022-10-05T00:13:20.573Z,5.10
2022-10-05T00:15:49.469Z,5.05
2022-10-05T00:18:20.713Z,8.90
2022-10-05T00:20:49.748Z,4.45
2022-10-05T00:23:25.152Z,4.85
2022-10-05T00:25:52.804Z,7.43
2022-10-05T00:28:28.026Z,4.93
2022-10-05T00:31:00.215Z,5.80
2022-10-05T00:33:28.531Z,4.45
2022-10-05T00:35:56.145Z,3.22
2022-10-05T00:38:24.129Z,4.35
2022-10-05T00:41:07.566Z,5.13
2022-10-05T00:44:01.672Z,5.70
2022-10-05T00:46:53.504Z,5.15
2022-10-05T00:50:10.852Z,4.38
2022-10-05T00:53:05.141Z,9.20
2022-10-05T00:56:11.173Z,6.18
2022-10-05T00:59:14.658Z,5.40
2022-10-05T01:02:03.007Z,3.65
2022-10-05T01:05:07.920Z,3.78
2022-10-05T01:08:02.489Z,4.57
2022-10-05T01:10:47.390Z,4.18
2022-10-05T01:13:21.089Z,3.10
2022-10-05T01:15:58.281Z,4.00
2022-10-05T01:18:40.844Z,7.20
2022-10-05T01:21:27.320Z,4.90
2022-10-05T01:24:00.936Z,3.15
2022-10-05T01:26:59.669Z,3.53
2022-10-05T01:29:38.503Z,5.72
2022-10-05T01:32:18.575Z,5.15
2022-10-05T01:34:55.243Z,4.03
2022-10-05T01:37:54.259Z,6.07
2022-10-05T01:40:32.370Z,3.87
2022-10-05T01:43:12.138Z,6.03
2022-10-05T01:46:04.603Z,4.28
2022-10-05T01:48:47.489Z,4.88
2022-10-05T01:51:32.158Z,5.57
2022-10-05T01:54:26.496Z,5.27
2022-10-05T01:57:22.011Z,5.35
2022-10-05T02:00:04.128Z,4.50
2022-10-05T02:02:52.878Z,8.30
2022-10-05T02:05:38.046Z,7.07
2022-10-05T02:08:22.188Z,7.00
2022-10-05T02:11:02.645Z,4.80
2022-10-05T02:14:01.332Z,5.88
2022-10-05T02:16:35.305Z,7.40
2022-10-05T02:19:12.027Z,4.28
2022-10-05T02:21:47.381Z,8.63
2022-10-05T02:24:27.344Z,8.07
2022-10-05T02:26:56.864Z,8.15
2022-10-05T02:29:28.901Z,7.10
2022-10-05T02:32:03.058Z,6.10
2022-10-05T02:34:42.708Z,8.03
2022-10-05T02:38:09.354Z,6.50
2022-10-05T02:41:07.378Z,9.38
2022-10-05T02:43:44.290Z,4.85
2022-10-05T02:46:25.284Z,5.50
2022-10-05T02:49:15.502Z,5.73
2022-10-05T02:52:03.694Z,6.45
2022-10-05T02:55:07.057Z,8.55
2022-10-05T02:58:02.880Z,6.22
2022-10-05T03:00:37.019Z,9.25
2022-10-05T03:03:16.032Z,11.27
2022-10-05T03:05:53.705Z,7.82
2022-10-05T03:08:42.597Z,10.07
2022-10-05T03:11:28.547Z,6.80
2022-10-05T03:14:22.892Z,7.32
2022-10-05T03:17:09.378Z,9.23
2022-10-05T03:20:04.322Z,10.57
2022-10-05T03:22:54.785Z,9.95
2022-10-05T03:26:06.304Z,6.38
2022-10-05T03:28:56.605Z,4.78
2022-10-05T03:31:55.410Z,5.60
2022-10-05T03:34:50.842Z,7.80
2022-10-05T03:37:21.429Z,8.93
2022-10-05T03:40:19.693Z,8.65
2022-10-05T03:43:19.005Z,4.68
2022-10-05T03:46:08.820Z,6.33
2022-10-05T03:48:50.198Z,4.55
2022-10-05T03:51:47.678Z,5.50
2022-10-05T03:54:23.232Z,4.05
2022-10-05T03:57:08.858Z,3.72
2022-10-05T03:59:49.396Z,2.97
2022-10-05T04:02:31.340Z,8.20
2022-10-05T04:05:22.992Z,4.70
2022-10-05T04:08:08.053Z,2.58
2022-10-05T04:10:41.530Z,3.20
2022-10-05T04:13:26.041Z,1.30
2022-10-05T04:16:06.820Z,2.80
2022-10-05T04:18:50.638Z,2.17
2022-10-05T04:21:24.056Z,3.67
2022-10-05T04:24:27.655Z,2.60
2022-10-05T04:27:00.607Z,1.10
2022-10-05T04:29:33.747Z,1.23
2022-10-05T04:32:04.209Z,3.63
2022-10-05T04:35:10.120Z,1.45
2022-10-05T04:37:56.689Z,3.33
2022-10-05T04:40:50.580Z,1.80
2022-10-05T04:43:59.662Z,1.92
2022-10-05T04:46:38.568Z,3.80
2022-10-05T04:49:25.246Z,2.75
2022-10-05T04:52:18.393Z,5.78
2022-10-05T04:55:01.208Z,1.73
2022-10-05T04:57:32.603Z,2.22
2022-10-05T05:00:25.060Z,1.17
2022-10-05T05:03:20.356Z,2.30
2022-10-05T05:06:16.438Z,1.50
2022-10-05T05:09:17.754Z,1.90
2022-10-05T05:12:03.950Z,0.93
2022-10-05T05:14:33.605Z,1.83
2022-10-05T05:17:48.368Z,2.85
2022-10-05T05:20:24.875Z,2.72
2022-10-05T05:23:18.954Z,3.03
2022-10-05T05:26:19.614Z,4.90
2022-10-05T05:29:06.724Z,0.82
2022-10-05T05:31:43.391Z,1.58
2022-10-05T05:34:40.398Z,1.15
2022-10-05T05:37:29.764Z,0.57
2022-10-05T05:40:32.568Z,2.78
2022-10-05T05:43:22.453Z,3.05
2022-10-05T05:46:00.698Z,0.85
2022-10-05T05:48:42.186Z,1.08
2022-10-05T05:51:20.040Z,1.00
2022-10-05T05:54:25.510Z,3.13
2022-10-05T05:57:11.031Z,1.27
2022-10-05T06:00:05.790Z,1.25
2022-10-05T06:02:54.897Z,3.25
2022-10-05T06:05:47.178Z,0.50
2022-10-05T06:08:25.657Z,1.35
2022-10-05T06:11:15.604Z,2.13
2022-10-05T06:13:43.960Z,1.05
2022-10-05T06:16:51.281Z,1.55
2022-10-05T06:19:23.840Z,1.33
2022-10-05T06:22:34.787Z,2.58
2022-10-05T06:25:23.409Z,2.38
2022-10-05T06:28:12.934Z,1.63
2022-10-05T06:31:26.758Z,2.63
2022-10-05T06:34:06.505Z,1.60
2022-10-05T06:37:05.574Z,2.72
2022-10-05T06:39:33.790Z,1.33
2022-10-05T06:42:45.100Z,2.65
2022-10-05T06:54:41.672Z,2.35
2022-10-05T06:57:10.195Z,2.33
2022-10-05T06:59:58.027Z,2.92
2022-10-05T07:02:29.420Z,3.05
2022-10-05T07:05:12.418Z,4.27
2022-10-05T07:08:04.366Z,2.42
2022-10-05T07:10:51.710Z,2.40
2022-10-05T07:13:51.593Z,2.10
2022-10-05T07:16:31.635Z,3.53
2022-10-05T07:19:19.295Z,3.33
2022-10-05T07:22:24.307Z,5.03
2022-10-05T07:25:00.829Z,2.97
2022-10-05T07:27:34.642Z,1.60
2022-10-05T07:30:06.007Z,4.88
2022-10-05T07:33:00.186Z,7.10
2022-10-05T07:36:11.869Z,2.03
2022-10-05T07:39:05.628Z,9.50
2022-10-05T07:41:44.245Z,6.78
2022-10-05T07:44:20.091Z,6.28
2022-10-05T07:47:12.044Z,3.27
2022-10-05T07:49:52.160Z,3.58
2022-10-05T07:52:34.525Z,3.20
2022-10-05T07:55:03.132Z,7.22
2022-10-05T07:58:06.100Z,4.07
2022-10-05T08:00:50.148Z,3.47
2022-10-05T08:03:40.880Z,4.22
2022-10-05T08:06:15.566Z,2.83
2022-10-05T08:08:57.516Z,4.80
2022-10-05T08:11:31.324Z,4.90
2022-10-05T08:14:07.148Z,6.33
2022-10-05T08:16:38.415Z,5.60
2022-10-05T08:19:16.464Z,4.05
2022-10-05T08:21:50.956Z,5.07
2022-10-05T08:24:54.119Z,5.28
2022-10-05T08:27:33.338Z,7.40
2022-10-05T08:30:05.862Z,5.47
2022-10-05T08:32:45.513Z,6.75
2022-10-05T08:35:40.850Z,7.72
2022-10-05T08:38:14.866Z,6.22
2022-10-05T08:40:48.531Z,6.53
2022-10-05T08:43:42.097Z,8.88
2022-10-05T08:46:47.632Z,5.88
2022-10-05T08:49:34.919Z,7.60
2022-10-05T08:52:24.563Z,8.75
2022-10-05T08:54:52.334Z,7.20
2022-10-05T08:57:53.912Z,7.28
2022-10-05T09:00:32.267Z,6.85
2022-10-05T09:03:08.856Z,9.70
2022-10-05T09:05:58.521Z,14.55
2022-10-05T09:08:41.264Z,6.10
2022-10-05T09:11:18.728Z,4.35
2022-10-05T09:14:10.534Z,4.25
2022-10-05T09:17:26.028Z,7.28
2022-10-05T09:20:38.899Z,7.30
2022-10-05T09:23:26.418Z,5.33
2022-10-05T09:26:08.278Z,4.70
2022-10-05T09:29:20.633Z,5.60
2022-10-05T09:32:04.367Z,7.95
2022-10-05T09:34:49.317Z,5.97
2022-10-05T09:37:20.238Z,6.87
2022-10-05T09:40:31.342Z,6.75
2022-10-05T09:43:21.887Z,9.20
2022-10-05T09:46:40.328Z,8.20
2022-10-05T09:49:17.034Z,7.43
2022-10-05T09:52:08.466Z,9.13
2022-10-05T09:54:44.815Z,6.35
2022-10-05T09:57:30.290Z,6.38
2022-10-05T10:00:16.577Z,7.45
2022-10-05T10:02:50.376Z,5.60
2022-10-05T10:05:34.049Z,4.53
2022-10-05T10:08:20.833Z,8.48
2022-10-05T10:11:23.471Z,8.05
2022-10-05T10:14:15.477Z,7.55
2022-10-05T10:17:04.187Z,10.00
2022-10-05T10:19:56.358Z,9.60
2022-10-05T10:22:51.322Z,7.65
2022-10-05T10:25:34.909Z,5.15
2022-10-05T10:28:05.779Z,7.93
2022-10-05T10:30:45.420Z,7.00
2022-10-05T10:33:19.195Z,5.63
2022-10-05T10:36:16.118Z,4.47
2022-10-05T10:38:55.762Z,4.55
2022-10-05T10:41:51.210Z,2.28
2022-10-05T10:44:30.948Z,5.65
2022-10-05T10:47:35.873Z,4.27
2022-10-05T10:50:28.418Z,6.22
2022-10-05T10:53:10.563Z,4.57
2022-10-05T10:55:38.032Z,1.38
2022-10-05T10:58:18.176Z,2.80
2022-10-05T11:00:54.672Z,5.20
2022-10-05T11:03:31.683Z,3.08
2022-10-05T11:06:17.210Z,1.35
2022-10-05T11:09:03.602Z,3.72
2022-10-05T11:11:51.303Z,2.65
2022-10-05T11:14:31.498Z,5.47
2022-10-05T11:17:22.218Z,4.93
2022-10-05T11:20:31.818Z,5.05
2022-10-05T11:23:13.298Z,5.28
2022-10-05T11:26:02.283Z,8.68
2022-10-05T11:28:48.432Z,3.93
2022-10-05T11:31:54.299Z,5.20
2022-10-05T11:34:46.531Z,9.75
2022-10-05T11:37:21.260Z,4.55
2022-10-05T11:40:29.796Z,5.38
2022-10-05T11:43:11.488Z,5.00
2022-10-05T11:45:51.021Z,7.30
2022-10-05T11:48:39.953Z,4.20
2022-10-05T11:51:29.079Z,6.20
2022-10-05T11:54:17.635Z,3.47
2022-10-05T11:56:53.759Z,4.47
2022-10-05T11:59:40.568Z,3.25
2022-10-05T12:02:27.322Z,5.80
2022-10-05T12:05:14.063Z,5.43
2022-10-05T12:07:56.971Z,4.78
2022-10-05T12:10:44.045Z,4.63
2022-10-05T12:13:33.724Z,2.28
2022-10-05T12:16:07.350Z,5.38
2022-10-05T12:18:39.273Z,2.28
2022-10-05T12:21:30.907Z,3.40
2022-10-05T12:24:07.419Z,7.43
2022-10-05T12:26:50.244Z,2.45
2022-10-05T12:29:26.962Z,2.25
2022-10-05T12:31:54.473Z,3.60
2022-10-05T12:34:34.950Z,1.90
2022-10-05T12:37:29.907Z,2.60
2022-10-05T12:40:12.351Z,2.67
2022-10-05T12:42:50.424Z,1.90
2022-10-05T12:45:46.341Z,2.65
2022-10-05T12:48:42.386Z,2.20
2022-10-05T12:51:22.418Z,4.00
2022-10-05T12:54:20.750Z,1.92
2022-10-05T12:57:17.514Z,2.65
2022-10-05T12:59:53.098Z,2.85
2022-10-05T13:02:44.165Z,2.53
2022-10-05T13:05:11.768Z,2.93
2022-10-05T13:07:57.391Z,3.33
2022-10-05T13:10:31.473Z,3.75
2022-10-05T13:13:37.563Z,6.10
2022-10-05T13:16:17.578Z,2.30
2022-10-05T13:19:06.889Z,1.83
2022-10-05T13:21:57.181Z,5.30
2022-10-05T13:24:28.800Z,2.38
2022-10-05T13:27:14.289Z,3.15
2022-10-05T13:30:02.826Z,4.40
2022-10-05T13:32:39.183Z,3.27
2022-10-05T13:35:22.258Z,2.53
2022-10-05T13:38:00.365Z,2.70
2022-10-05T13:41:05.235Z,5.28
2022-10-05T13:44:03.765Z,4.93
2022-10-05T13:46:49.590Z,2.13
2022-10-05T13:49:41.658Z,4.72
2022-10-05T13:52:42.314Z,5.10
2022-10-05T13:55:40.067Z,4.60
2022-10-05T13:58:19.730Z,3.60
2022-10-05T14:00:53.399Z,4.07
2022-10-05T14:03:31.414Z,0.68
2022-10-05T14:06:01.665Z,2.67
2022-10-05T14:08:35.449Z,1.42
2022-10-05T14:11:36.635Z,3.30
2022-10-05T14:14:17.493Z,0.73
2022-10-05T14:16:57.534Z,1.67
2022-10-05T14:19:43.282Z,3.88
2022-10-05T14:22:24.284Z,2.35
2022-10-05T14:25:03.093Z,1.63
2022-10-05T14:27:34.678Z,2.30
2022-10-05T14:30:19.219Z,2.22
2022-10-05T14:32:56.363Z,3.72
2022-10-05T14:35:29.490Z,2.97
2022-10-05T14:38:00.369Z,3.42
2022-10-05T14:40:34.951Z,2.87
2022-10-05T14:43:18.972Z,2.70
2022-10-05T14:45:56.676Z,2.95
2022-10-05T14:48:29.340Z,5.13
2022-10-05T14:50:59.628Z,5.50
2022-10-05T14:53:56.218Z,4.50
2022-10-05T14:56:42.523Z,4.35
2022-10-05T14:59:14.151Z,3.70
2022-10-05T15:02:23.500Z,2.92
2022-10-05T15:05:01.575Z,3.42
2022-10-05T15:07:36.231Z,4.13
2022-10-05T15:10:19.728Z,2.20
2022-10-05T15:12:48.503Z,2.38
2022-10-05T15:15:34.530Z,4.10
2022-10-05T15:18:15.062Z,3.13
2022-10-05T15:21:09.125Z,2.27
2022-10-05T15:23:47.563Z,4.38
2022-10-05T15:26:41.651Z,2.90
2022-10-05T15:29:30.427Z,3.33
2022-10-05T15:32:14.719Z,3.25
2022-10-05T15:34:55.688Z,3.87
2022-10-05T15:37:31.992Z,3.80
2022-10-05T15:40:04.954Z,2.00
2022-10-05T15:42:45.309Z,5.25
2022-10-05T15:45:20.521Z,5.57
2022-10-05T15:48:03.187Z,4.37
2022-10-05T15:50:37.843Z,5.80
2022-10-05T15:53:15.316Z,4.47
2022-10-05T15:56:13.253Z,3.25
2022-10-05T15:58:53.085Z,3.38
2022-10-05T16:01:40.387Z,3.57
2022-10-05T16:04:25.060Z,6.35
2022-10-05T16:07:14.155Z,4.43
2022-10-05T16:10:02.325Z,3.63
2022-10-05T16:12:54.967Z,4.63
2022-10-05T16:15:33.428Z,4.37
2022-10-05T16:18:18.305Z,4.45
2022-10-05T16:21:44.327Z,3.13
2022-10-05T16:24:36.304Z,17.58
2022-10-05T16:27:13.487Z,8.23
2022-10-05T16:30:01.255Z,10.47
2022-10-05T16:32:36.922Z,8.85
2022-10-05T16:35:19.969Z,3.42
2022-10-05T16:38:08.857Z,4.97
2022-10-05T16:41:02.086Z,4.43
2022-10-05T16:44:03.573Z,5.13
2022-10-05T16:47:22.881Z,4.32
2022-10-05T16:50:24.795Z,4.57
2022-10-05T16:53:12.113Z,1.38
2022-10-05T16:55:45.760Z,2.22
2022-10-05T16:58:49.688Z,3.57
2022-10-05T17:01:43.794Z,4.05
2022-10-05T17:04:21.010Z,2.83
2022-10-05T17:06:58.601Z,3.70
2022-10-05T17:09:44.719Z,2.92
2022-10-05T17:12:31.198Z,3.00
2022-10-05T17:15:36.279Z,5.90
2022-10-05T17:18:41.236Z,1.98
2022-10-05T17:21:18.037Z,3.13
2022-10-05T17:23:56.011Z,2.65
2022-10-05T17:26:23.522Z,3.77
2022-10-05T17:29:12.734Z,3.22
2022-10-05T17:32:33.544Z,8.13
2022-10-05T17:35:01.087Z,3.25
2022-10-05T17:37:43.936Z,5.63
2022-10-05T17:40:38.720Z,5.00
2022-10-05T17:43:15.452Z,4.25
2022-10-05T17:45:42.934Z,5.70
2022-10-05T17:48:12.151Z,5.65
2022-10-05T17:50:58.110Z,7.05
2022-10-05T17:54:02.635Z,6.97
2022-10-05T17:56:33.855Z,4.88
2022-10-05T17:59:04.863Z,6.32
2022-10-05T18:01:38.305Z,4.97
2022-10-05T18:04:11.907Z,5.80
2022-10-05T18:06:59.104Z,12.17
2022-10-05T18:09:27.724Z,6.85
2022-10-05T18:12:24.984Z,5.38
2022-10-05T18:15:14.363Z,5.60
2022-10-05T18:17:58.731Z,8.68
2022-10-05T18:20:29.143Z,11.03
2022-10-05T18:23:09.617Z,7.20
2022-10-05T18:25:48.597Z,8.43
2022-10-05T18:28:35.029Z,8.18
2022-10-05T18:31:21.352Z,7.32
2022-10-05T18:33:57.175Z,8.57
2022-10-05T18:36:38.204Z,7.40
2022-10-05T18:39:26.180Z,7.45
2022-10-05T18:42:08.878Z,5.13
2022-10-05T18:44:40.301Z,4.97
2022-10-05T18:47:29.309Z,9.47
2022-10-05T18:50:10.986Z,8.10
2022-10-05T18:53:09.121Z,5.72
2022-10-05T18:55:44.481Z,8.35
2022-10-05T18:58:22.372Z,4.00
2022-10-05T19:01:11.147Z,6.50
2022-10-05T19:04:09.767Z,7.63
2022-10-05T19:06:54.429Z,5.40
2022-10-05T19:09:59.794Z,6.43
2022-10-05T19:12:46.807Z,7.55
2022-10-05T19:15:26.223Z,10.43
2022-10-05T19:18:27.277Z,4.65
2022-10-05T19:21:35.625Z,8.88
2022-10-05T19:24:46.676Z,7.03
2022-10-05T19:27:17.119Z,3.42
2022-10-05T19:29:50.813Z,9.40
2022-10-05T19:32:34.220Z,5.57
2022-10-05T19:35:29.715Z,4.65
2022-10-05T19:38:15.894Z,8.43
2022-10-05T19:41:12.506Z,5.95
2022-10-05T19:43:42.968Z,11.80
2022-10-05T19:46:30.819Z,10.27
2022-10-05T19:49:00.247Z,9.02
2022-10-05T19:51:31.570Z,8.73
2022-10-05T19:54:13.820Z,8.38
2022-10-05T19:56:55.568Z,7.07
2022-10-05T19:59:27.687Z,8.52
2022-10-05T20:01:57.708Z,4.82
2022-10-05T20:04:55.030Z,9.15
2022-10-05T20:07:23.720Z,11.05
2022-10-05T20:09:54.855Z,10.47
2022-10-05T20:12:23.052Z,7.82
2022-10-05T20:15:37.245Z,11.30
2022-10-05T20:18:54.231Z,8.65
2022-10-05T20:21:41.571Z,9.27
2022-10-05T20:24:21.599Z,10.60
2022-10-05T20:27:02.447Z,14.13
2022-10-05T20:29:38.313Z,7.72
2022-10-05T20:32:08.316Z,11.52
2022-10-05T20:34:37.563Z,7.53
2022-10-05T20:37:05.110Z,10.97
2022-10-05T20:39:32.729Z,6.90
2022-10-05T20:42:00.423Z,8.55
2022-10-05T20:44:27.936Z,8.90
2022-10-05T20:46:55.663Z,5.93
2022-10-05T20:49:25.833Z,7.00
2022-10-05T20:51:55.828Z,9.75
2022-10-05T20:54:25.352Z,6.53
2022-10-05T20:56:55.760Z,9.75
2022-10-05T20:59:24.849Z,8.65
2022-10-05T21:01:52.381Z,10.23
2022-10-05T21:04:25.291Z,9.32
2022-10-05T21:06:53.970Z,11.75
2022-10-05T21:09:21.584Z,8.02
2022-10-05T21:11:51.665Z,6.05
2022-10-05T21:14:19.201Z,9.13
2022-10-05T21:16:46.730Z,9.75
2022-10-05T21:19:14.813Z,9.68
2022-10-05T21:21:44.359Z,9.75
2022-10-05T21:24:14.047Z,8.18
2022-10-05T21:26:42.993Z,13.53
2022-10-05T21:29:12.873Z,9.18
2022-10-05T21:31:40.783Z,10.50
2022-10-05T21:34:08.640Z,9.80
2022-10-05T21:36:36.149Z,14.75
2022-10-05T21:39:03.871Z,6.97
2022-10-05T21:41:31.308Z,14.63
2022-10-05T21:43:58.824Z,12.35
2022-10-05T21:46:26.800Z,11.18
2022-10-05T21:48:55.209Z,13.68
2022-10-05T21:51:25.154Z,12.70
2022-10-05T21:54:01.846Z,17.63
2022-10-05T21:56:35.002Z,14.65
2022-10-05T21:59:06.477Z,12.95
2022-10-05T22:01:36.114Z,12.85
2022-10-05T22:04:05.145Z,14.30
2022-10-05T22:06:34.191Z,11.45
2022-10-05T22:09:02.526Z,9.65
2022-10-05T22:11:31.712Z,17.20
2022-10-05T22:14:02.828Z,12.13
2022-10-05T22:16:33.391Z,13.80
2022-10-05T22:19:06.123Z,16.98
2022-10-05T22:21:38.223Z,10.70
2022-10-05T22:24:05.988Z,9.45
2022-10-05T22:26:34.869Z,11.25
2022-10-05T22:29:03.364Z,15.60
2022-10-05T22:31:30.980Z,12.52
2022-10-05T22:33:58.599Z,13.75
2022-10-05T22:36:26.460Z,8.52
2022-10-05T22:38:53.975Z,9.07
2022-10-05T22:41:21.457Z,15.47
2022-10-05T22:43:50.860Z,13.73
2022-10-05T22:46:19.363Z,11.60
2022-10-05T22:48:46.926Z,13.93
2022-10-05T22:51:14.431Z,14.82
2022-10-05T22:53:41.974Z,10.27
2022-10-05T22:56:13.651Z,11.07
2022-10-05T22:58:42.239Z,11.75
2022-10-05T23:01:13.299Z,11.45
2022-10-05T23:03:41.389Z,13.43
2022-10-05T23:06:17.188Z,13.27
2022-10-05T23:08:46.032Z,11.77
2022-10-05T23:11:22.662Z,13.95
2022-10-05T23:13:52.381Z,13.05
2022-10-05T23:16:22.459Z,17.33
2022-10-05T23:18:51.814Z,11.97
2022-10-05T23:21:20.936Z,10.32
2022-10-05T23:23:51.075Z,9.60
2022-10-05T23:26:23.702Z,15.63
2022-10-05T23:28:53.768Z,14.43
2022-10-05T23:31:24.597Z,11.07
2022-10-05T23:33:53.549Z,14.93
2022-10-05T23:36:25.656Z,15.10
2022-10-05T23:38:54.021Z,14.18
2022-10-05T23:41:21.659Z,12.15
2022-10-05T23:43:49.311Z,15.10
2022-10-05T23:46:17.784Z,12.93
2022-10-05T23:48:45.587Z,19.63
2022-10-05T23:51:14.496Z,9.80
2022-10-05T23:53:42.146Z,8.10
2022-10-05T23:56:09.663Z,10.80
2022-10-05T23:58:37.390Z,12.02
